Wind From: 20-09-2018 14:00 Until: 20:00 warning for: Wind Level: Yellow info button
suomi:
Tuulivaroitus maa-alueille: Lounaistuuli on voimakasta, tuulen nopeus puuskissa 15 m/s.

svenska:
Vindvarning för landområden: är den sydvästliga vinden kraftigt, i vindbyarna 15 m/s.

english:
Wind warning for land areas: , strong winds from southwest may bring strong gusts of 15 m/s. 


Thunder radar more information blitzortung!


Löydät sääaseman tiedot myös:

European Weather Network

Finland Weather Exchange

Weather Underground

AWEKAS



Weather Underground säähistoriasivu

Päivittäin yhteenveto Maaliskuu 4, 2017 Yksiköt:  Englantilaiset    Metriset   Molemmat
« Edellinen Päivä
Seuraava Päivä »
Päivittäin Viikoittain Kuukausittain Vuosittain Mukautettu
  Korkea: Matala: Keskiarvo:
Lämpötila: TemperatureC °F -7.1 °F -4.4 °F
Kastepiste: DewpointC °F -8.0 °F -5.7 °F
Kosteus: Humidity % 84 % 90 %
Tuulen nopeus: WindSpeedKMH mph 0.0 mph 0.3 mph
Tuulenpuuska: WindSpeedGustKMH mph - -
Tuuli:- - WNW
Ilmanpaine: PressurehPa in 1001.6 in -
Sade: 0.0 in    
Historical Graphs
 
 
Taulukkotiedot Maaliskuu 4, 2017
Aika Lämpötila Kastepiste Ilmanpaine Tuuli Tuulen nopeus Tuulenpuuska Kosteus Sademäärä (tunneittain)
TemperatureC °F DewpointC °F PressurehPa in Calm     Humidity % HourlyPrecipMM in
00:00 -6.7 °F -7.6 °F 1001.6 in Calm   1.6 mph 93 % 0.0 in
00:15 -6.7 °F -7.7 °F 1001.6 in Calm   3.2 mph 93 % 0.0 in
00:30 -6.7 °F -7.7 °F 1001.6 in Calm   1.6 mph 93 % 0.0 in
00:45 -6.9 °F -7.8 °F 1001.9 in WNW 1.6 mph 4.8 mph 93 % 0.0 in
01:00 -6.9 °F -7.9 °F 1001.9 in Calm   1.6 mph 93 % 0.0 in
01:15 -6.9 °F -7.9 °F 1002.3 in Calm   3.2 mph 93 % 0.0 in
01:30 -7.1 °F -8.0 °F 1002.3 in Calm   4.8 mph 93 % 0.0 in
01:45 -7.1 °F -7.9 °F 1002.6 in Calm   3.2 mph 94 % 0.0 in
02:00 -7.0 °F -7.0 °F 1002.6 in Calm   6.4 mph 100 % 0.0 in
02:15 -6.9 °F -7.7 °F 1002.6 in Calm   3.2 mph 94 % 0.0 in
02:30 -6.8 °F -7.6 °F 1002.6 in Calm     94 % 0.0 in
02:45 -6.8 °F -7.6 °F 1002.6 in Calm   4.8 mph 94 % 0.0 in
03:00 -6.7 °F -7.5 °F 1002.9 in WNW 1.6 mph 4.8 mph 94 % 0.0 in
03:15 -6.6 °F -7.4 °F 1002.9 in Calm     94 % 0.0 in
03:30 -6.3 °F -7.1 °F 1002.9 in Calm   6.4 mph 94 % 0.0 in
03:45 -6.1 °F -6.9 °F 1002.9 in Calm   1.6 mph 94 % 0.0 in
04:00 -6.0 °F -6.8 °F 1003.3 in Calm     94 % 0.0 in
04:15 -5.9 °F -6.8 °F 1003.6 in Calm     94 % 0.0 in
04:30 -5.8 °F -6.6 °F 1003.6 in Calm   1.6 mph 94 % 0.0 in
04:45 -5.8 °F -6.6 °F 1003.9 in Calm     94 % 0.0 in
05:00 -5.7 °F -6.5 °F 1003.9 in Calm     94 % 0.0 in
05:15 -5.6 °F -6.4 °F 1004.3 in Calm     94 % 0.0 in
05:30 -5.6 °F -6.5 °F 1004.3 in Calm   3.2 mph 93 % 0.0 in
05:45 -5.6 °F -6.5 °F 1004.3 in Calm     93 % 0.0 in
06:00 -5.6 °F -6.6 °F 1004.3 in Calm     93 % 0.0 in
06:15 -5.7 °F -6.6 °F 1004.3 in Calm     93 % 0.0 in
06:30 -5.6 °F -6.6 °F 1004.6 in Calm     93 % 0.0 in
06:45 -5.6 °F -6.6 °F 1004.6 in Calm     93 % 0.0 in
07:00 -5.6 °F -6.5 °F 1004.6 in Calm     93 % 0.0 in
07:15 -5.5 °F -6.3 °F 1004.6 in Calm     94 % 0.0 in
07:30 -5.4 °F -6.3 °F 1004.6 in Calm     94 % 0.0 in
07:45 -5.3 °F -6.1 °F 1005.0 in Calm     94 % 0.0 in
08:00 -5.2 °F -6.0 °F 1005.3 in Calm     94 % 0.0 in
08:15 -5.0 °F -5.8 °F 1005.3 in Calm     94 % 0.0 in
08:30 -4.8 °F -5.6 °F 1005.6 in Calm   1.6 mph 94 % 0.0 in
08:45 -4.6 °F -5.4 °F 1005.6 in Calm   3.2 mph 94 % 0.0 in
09:00 -4.4 °F -5.2 °F 1005.6 in Calm   1.6 mph 94 % 0.0 in
09:15 -4.3 °F -5.1 °F 1006.0 in Calm   6.4 mph 94 % 0.0 in
09:30 -4.2 °F -5.0 °F 1006.0 in Calm   3.2 mph 94 % 0.0 in
09:45 -4.1 °F -5.0 °F 1006.3 in Calm   1.6 mph 93 % 0.0 in
10:00 -3.9 °F -4.9 °F 1006.3 in Calm   1.6 mph 93 % 0.0 in
10:15 -3.8 °F -4.9 °F 1006.3 in WNW 1.6 mph 4.8 mph 92 % 0.0 in
10:30 -3.6 °F -4.5 °F 1006.3 in WNW 1.6 mph 8.0 mph 93 % 0.0 in
10:45 -3.3 °F -4.4 °F 1006.7 in Calm   8.0 mph 92 % 0.0 in
11:00 -3.3 °F -4.4 °F 1007.0 in WNW 3.2 mph 11.3 mph 92 % 0.0 in
11:15 -2.9 °F -4.1 °F 1007.0 in Calm   3.2 mph 92 % 0.0 in
11:30 -2.9 °F -4.2 °F 1007.0 in NW 1.6 mph 9.7 mph 91 % 0.0 in
11:45 -2.7 °F -4.2 °F 1007.0 in NW 1.6 mph 6.4 mph 89 % 0.0 in
12:00 -2.6 °F -4.2 °F 1007.3 in NW 3.2 mph 8.0 mph 89 % 0.0 in
12:15 -2.8 °F -4.3 °F 1007.3 in NW 1.6 mph 8.0 mph 89 % 0.0 in
12:30 -2.3 °F -4.1 °F 1007.7 in Calm   1.6 mph 88 % 0.0 in
12:45 -2.3 °F -3.8 °F 1007.7 in Calm   1.6 mph 90 % 0.0 in
13:00 -2.4 °F -4.2 °F 1008.0 in North 1.6 mph 8.0 mph 88 % 0.0 in
13:15 -2.5 °F -4.2 °F 1008.0 in NW 1.6 mph 8.0 mph 88 % 0.0 in
13:30 -2.4 °F -4.3 °F 1008.0 in NNW 1.6 mph 3.2 mph 87 % 0.0 in
13:45 -2.3 °F -4.1 °F 1008.0 in Calm   6.4 mph 87 % 0.0 in
14:00 -2.3 °F -4.1 °F 1008.4 in Calm   6.4 mph 87 % 0.0 in
14:15 -2.2 °F -3.9 °F 1008.4 in Calm   3.2 mph 88 % 0.0 in
14:30 -2.2 °F -4.2 °F 1008.4 in Calm   3.2 mph 86 % 0.0 in
14:45 -2.2 °F -4.2 °F 1008.4 in Calm   3.2 mph 86 % 0.0 in
15:00 -2.3 °F -4.3 °F 1008.7 in Calm   4.8 mph 86 % 0.0 in
15:15 -2.3 °F -4.6 °F 1009.0 in Calm   3.2 mph 84 % 0.0 in
15:30 -2.4 °F -4.6 °F 1009.0 in Calm   3.2 mph 85 % 0.0 in
15:45 -2.3 °F -4.5 °F 1009.4 in Calm   1.6 mph 85 % 0.0 in
16:00 -2.3 °F -4.5 °F 1009.4 in Calm   3.2 mph 85 % 0.0 in
16:15 -2.3 °F -4.4 °F 1009.7 in Calm   4.8 mph 86 % 0.0 in
16:30 -2.4 °F -4.5 °F 1009.7 in NNE 1.6 mph 4.8 mph 86 % 0.0 in
16:45 -2.7 °F -4.8 °F 1010.0 in NNW 1.6 mph 4.8 mph 85 % 0.0 in
17:00 -2.9 °F -5.0 °F 1010.0 in Calm   3.2 mph 86 % 0.0 in
17:15 -3.2 °F -5.2 °F 1010.4 in Calm   1.6 mph 86 % 0.0 in
17:30 -3.3 °F -5.3 °F 1010.4 in Calm     86 % 0.0 in
17:45 -3.4 °F -5.4 °F 1010.7 in Calm     86 % 0.0 in
18:00 -3.4 °F -5.2 °F 1010.7 in Calm     87 % 0.0 in
18:15 -3.5 °F -5.4 °F 1010.7 in Calm   3.2 mph 87 % 0.0 in
18:30 -3.8 °F -5.5 °F 1011.1 in Calm   3.2 mph 88 % 0.0 in
18:45 -4.1 °F -5.6 °F 1011.4 in NW 1.6 mph 8.0 mph 89 % 0.0 in
19:00 -4.2 °F -5.7 °F 1011.4 in NW 1.6 mph 8.0 mph 89 % 0.0 in
19:15 -4.5 °F -6.0 °F 1011.4 in Calm   4.8 mph 89 % 0.0 in
19:30 -4.9 °F -6.3 °F 1011.4 in NW 1.6 mph 4.8 mph 90 % 0.0 in
19:45 -5.2 °F -6.5 °F 1011.7 in Calm   4.8 mph 91 % 0.0 in
20:00 -5.3 °F -6.4 °F 1011.7 in NNW 1.6 mph 6.4 mph 92 % 0.0 in
20:15 -5.1 °F -6.2 °F 1011.7 in Calm     92 % 0.0 in
20:30 -5.0 °F -6.1 °F 1012.1 in Calm     92 % 0.0 in
20:45 -4.9 °F -6.0 °F 1012.1 in Calm   1.6 mph 92 % 0.0 in
21:00 -4.8 °F -5.9 °F 1012.1 in Calm   8.0 mph 92 % 0.0 in
21:15 -4.7 °F -5.8 °F 1012.4 in Calm   3.2 mph 92 % 0.0 in
21:30 -4.6 °F -5.7 °F 1012.4 in Calm     92 % 0.0 in
21:45 -4.6 °F -5.7 °F 1012.8 in Calm   4.8 mph 92 % 0.0 in
22:00 -4.5 °F -5.6 °F 1012.8 in Calm   3.2 mph 92 % 0.0 in
22:15 -4.4 °F -5.5 °F 1013.1 in Calm   3.2 mph 92 % 0.0 in
22:30 -4.4 °F -5.7 °F 1013.1 in Calm   1.6 mph 91 % 0.0 in
22:45 -4.4 °F -5.8 °F 1013.1 in Calm   1.6 mph 90 % 0.0 in
23:00 -4.5 °F -6.0 °F 1013.4 in Calm     89 % 0.0 in
23:15 -4.5 °F -6.0 °F 1013.4 in Calm     89 % 0.0 in
23:30 -4.5 °F -6.2 °F 1013.4 in Calm     88 % 0.0 in
23:45 -4.6 °F -6.2 °F 1013.4 in Calm     88 % 0.0 in
Esan sääasema
Terveisin Weather Underground - 2.75 mb

Alkuperäinen skripti  Jim McMurry - jmcmurry@mwt.net Sovitettu myös templatelle  Wim van der Kuil - Leuven-Template.eu

Laitteet joita käytämme:

Sääasema
Davis VP2

Sääasemaohjelma
Cumulus

Sääaseman tietokone
Asus EeePC

Palveluntarjoaja
Suncomet

Davis VP2

Cumulus

Asus EeePC

Suncomet